Time;durP1;ratioP1;P1;durP2;ratioP2;P2;SDS_P1;SDS_P2;PMS_P1;PMS_P2;Temp;Humidity;BMP_temperature;BMP_pressure;BME280_temperature;BME280_humidity;BME280_pressure;Samples;Min_cycle;Max_cycle;Signal;HPM_P1;HPM_P2
2023/09/13 00:00:47;;;;;;;5.25;3.38;;;18.30;99.90;;;;;;5031782;28;20446;-71
2023/09/13 00:03:13;;;;;;;8.57;3.20;;;18.30;99.90;;;;;;5024864;28;20041;-70
2023/09/13 00:05:42;;;;;;;6.63;3.00;;;18.30;99.90;;;;;;5024165;28;20022;-70
2023/09/13 00:08:08;;;;;;;7.05;2.70;;;18.30;99.90;;;;;;5025511;28;20087;-74
2023/09/13 00:10:34;;;;;;;4.20;2.37;;;18.30;99.90;;;;;;5031560;28;20360;-70
2023/09/13 00:12:59;;;;;;;8.60;3.30;;;18.30;99.90;;;;;;5024880;28;20017;-70
2023/09/13 00:15:25;;;;;;;3.90;2.40;;;18.40;99.90;;;;;;5031202;28;20328;-76
2023/09/13 00:17:51;;;;;;;4.87;2.33;;;18.40;99.90;;;;;;5025377;28;20029;-71
2023/09/13 00:20:17;;;;;;;0.30;0.30;;;18.30;99.90;;;;;;5029228;28;20057;-71
2023/09/13 00:22:45;;;;;;;0.95;0.95;;;18.30;99.90;;;;;;5024546;28;20100;-70
2023/09/13 00:25:11;;;;;;;2.30;0.93;;;18.20;99.90;;;;;;5030101;28;20021;-70
2023/09/13 00:27:36;;;;;;;1.95;1.30;;;18.20;99.90;;;;;;5032745;28;20033;-70
2023/09/13 00:30:02;;;;;;;2.07;0.70;;;18.20;99.90;;;;;;5032591;28;20030;-70
2023/09/13 00:32:31;;;;;;;0.75;0.60;;;18.20;99.90;;;;;;5034458;28;20083;-70
2023/09/13 00:34:57;;;;;;;0.95;0.50;;;18.10;99.90;;;;;;5026288;28;20053;-70
2023/09/13 00:37:22;;;;;;;1.10;0.77;;;18.20;99.90;;;;;;5034206;28;20033;-71
2023/09/13 00:39:48;;;;;;;1.33;1.00;;;18.10;99.90;;;;;;5030944;28;20014;-70
2023/09/13 00:42:14;;;;;;;0.40;0.40;;;18.10;99.90;;;;;;5036373;28;20083;-76
2023/09/13 00:44:39;;;;;;;1.30;0.93;;;18.10;99.90;;;;;;5024434;28;20033;-70
2023/09/13 00:47:05;;;;;;;1.83;1.17;;;18.10;99.90;;;;;;5031848;28;20034;-70
2023/09/13 00:49:31;;;;;;;6.28;0.75;;;18.10;99.90;;;;;;5033194;28;20038;-70
2023/09/13 00:51:58;;;;;;;0.50;0.50;;;18.00;99.90;;;;;;5035571;28;20068;-76
2023/09/13 00:54:25;;;;;;;0.80;0.77;;;18.00;99.90;;;;;;5031611;28;20038;-70
2023/09/13 00:56:50;;;;;;;0.63;0.40;;;18.00;99.90;;;;;;5027611;28;20320;-71
2023/09/13 00:59:16;;;;;;;0.43;0.40;;;18.00;99.90;;;;;;5032531;28;20381;-71
2023/09/13 01:01:42;;;;;;;1.60;1.03;;;18.00;99.90;;;;;;5031027;28;20032;-70
2023/09/13 01:04:07;;;;;;;1.77;0.93;;;18.00;99.90;;;;;;5041652;28;20032;-70
2023/09/13 01:06:36;;;;;;;0.83;0.60;;;18.00;99.90;;;;;;5036867;28;20029;-71
2023/09/13 01:09:04;;;;;;;0.90;0.63;;;18.00;99.90;;;;;;5035249;28;20032;-70
2023/09/13 01:11:29;;;;;;;1.08;0.98;;;18.00;99.90;;;;;;5034565;28;20033;-70
2023/09/13 01:13:55;;;;;;;1.13;0.97;;;18.10;99.90;;;;;;5034652;28;20037;-76
2023/09/13 01:16:51;;;;;;;1.47;0.87;;;18.10;99.90;;;;;;5031876;28;20452;-70
2023/09/13 01:19:38;;;;;;;1.80;1.25;;;18.10;99.90;;;;;;5039151;28;20029;-76
2023/09/13 01:22:25;;;;;;;3.67;0.88;;;18.10;99.90;;;;;;5027003;28;20421;-70
2023/09/13 01:25:15;;;;;;;4.28;1.83;;;18.10;99.90;;;;;;5033002;28;20148;-71
2023/09/13 01:27:53;;;;;;;2.67;1.52;;;18.10;99.90;;;;;;5036692;28;20049;-70
2023/09/13 01:30:19;;;;;;;1.45;1.10;;;18.10;99.90;;;;;;5043065;28;20028;-70
2023/09/13 01:32:47;;;;;;;2.13;1.00;;;18.10;99.90;;;;;;5045936;28;20032;-70
2023/09/13 01:35:14;;;;;;;1.45;1.02;;;18.10;99.90;;;;;;5033236;28;20053;-70
2023/09/13 01:37:39;;;;;;;1.60;0.97;;;18.10;99.90;;;;;;5034830;28;20037;-70
2023/09/13 01:40:07;;;;;;;0.70;0.70;;;18.10;99.90;;;;;;5033568;28;20100;-70
2023/09/13 01:42:36;;;;;;;2.38;1.17;;;18.10;99.90;;;;;;5033241;28;20440;-70
2023/09/13 01:45:03;;;;;;;1.58;0.80;;;18.10;99.90;;;;;;5033887;28;20029;-70
2023/09/13 01:47:30;;;;;;;1.15;1.05;;;18.10;99.90;;;;;;5024871;28;20080;-71
2023/09/13 01:49:57;;;;;;;1.27;1.17;;;18.00;99.90;;;;;;5034024;28;20026;-71
2023/09/13 01:52:23;;;;;;;0.60;0.60;;;18.00;99.90;;;;;;5026581;28;20421;-75
2023/09/13 01:54:49;;;;;;;1.77;1.20;;;18.00;99.90;;;;;;5035158;28;20034;-70
2023/09/13 01:57:14;;;;;;;0.70;0.70;;;18.00;99.90;;;;;;5027173;28;20021;-70
2023/09/13 01:59:40;;;;;;;0.63;0.63;;;18.10;99.90;;;;;;5033716;28;20029;-70
2023/09/13 02:02:06;;;;;;;4.70;0.30;;;18.00;99.90;;;;;;5033583;28;20033;-76
2023/09/13 02:04:33;;;;;;;0.20;0.20;;;18.00;99.90;;;;;;5030324;28;20086;-70
2023/09/13 02:07:00;;;;;;;0.10;0.10;;;18.00;99.90;;;;;;5033327;28;20033;-70
2023/09/13 02:09:26;;;;;;;0.28;0.22;;;17.90;99.90;;;;;;5032481;28;20335;-70
2023/09/13 02:11:52;;;;;;;0.30;0.30;;;17.90;99.90;;;;;;5031092;28;20033;-71
2023/09/13 02:14:17;;;;;;;4.87;0.97;;;17.90;99.90;;;;;;5024970;28;20032;-70
2023/09/13 02:16:43;;;;;;;0.90;0.50;;;17.80;99.90;;;;;;5037496;28;20028;-70
2023/09/13 02:19:09;;;;;;;0.47;0.47;;;17.80;99.90;;;;;;5033331;28;20092;-71
2023/09/13 02:21:35;;;;;;;1.08;0.85;;;17.80;99.90;;;;;;5033438;28;20029;-71
2023/09/13 02:24:00;;;;;;;0.20;0.20;;;17.70;99.90;;;;;;5035387;28;20033;-71
2023/09/13 02:26:26;;;;;;;0.80;0.23;;;17.70;99.90;;;;;;5034915;28;20122;-70
2023/09/13 02:28:53;;;;;;;0.40;0.30;;;17.70;99.90;;;;;;5032140;28;20022;-70
2023/09/13 02:31:26;;;;;;;0.43;0.43;;;17.70;99.90;;;;;;5037767;28;20412;-70
2023/09/13 02:33:53;;;;;;;0.20;0.20;;;17.60;99.90;;;;;;5036053;28;20041;-70
2023/09/13 02:36:19;;;;;;;0.30;0.30;;;17.60;99.90;;;;;;5030946;28;20089;-71
2023/09/13 02:38:45;;;;;;;0.63;0.57;;;17.60;99.90;;;;;;5034922;28;20041;-70
2023/09/13 02:41:11;;;;;;;0.70;0.70;;;17.60;99.90;;;;;;5025263;28;20034;-70
2023/09/13 02:43:39;;;;;;;1.57;0.90;;;17.50;99.90;;;;;;5027635;28;20028;-70
2023/09/13 02:46:05;;;;;;;4.55;1.00;;;17.50;99.90;;;;;;5025793;28;20033;-71
2023/09/13 02:48:30;;;;;;;2.60;1.10;;;17.60;99.90;;;;;;5026552;28;20044;-70
2023/09/13 02:50:56;;;;;;;1.37;1.00;;;17.60;99.90;;;;;;5026522;28;20030;-70
2023/09/13 02:53:22;;;;;;;1.30;0.87;;;17.50;99.90;;;;;;5040310;28;20032;-71
2023/09/13 02:55:48;;;;;;;0.95;0.82;;;17.50;99.90;;;;;;5032106;28;20088;-70
2023/09/13 02:58:14;;;;;;;0.73;0.73;;;17.50;99.90;;;;;;5028923;28;20038;-70
2023/09/13 03:00:43;;;;;;;7.83;0.97;;;17.60;99.90;;;;;;5033728;28;20334;-70
2023/09/13 03:03:09;;;;;;;3.30;1.58;;;17.60;99.90;;;;;;5033335;28;20367;-70
2023/09/13 03:05:36;;;;;;;1.10;0.90;;;17.60;99.90;;;;;;5031043;28;20047;-70
2023/09/13 03:08:02;;;;;;;2.53;1.33;;;17.60;99.90;;;;;;5034094;28;20033;-70
2023/09/13 03:10:28;;;;;;;1.55;0.98;;;17.60;99.90;;;;;;5031029;28;20037;-73
2023/09/13 03:12:54;;;;;;;2.50;0.93;;;17.60;99.90;;;;;;5031249;28;20040;-70
2023/09/13 03:15:19;;;;;;;1.13;1.03;;;17.60;99.90;;;;;;5027601;28;20030;-70
2023/09/13 03:17:45;;;;;;;1.13;0.97;;;17.60;99.90;;;;;;5033206;28;20041;-70
2023/09/13 03:20:11;;;;;;;2.40;1.60;;;17.60;99.90;;;;;;5033546;28;20033;-70
2023/09/13 03:22:37;;;;;;;1.23;1.05;;;17.60;99.90;;;;;;5028941;28;20104;-70
2023/09/13 03:25:05;;;;;;;0.73;0.73;;;17.60;99.90;;;;;;5021581;28;20443;-70
2023/09/13 03:27:31;;;;;;;1.92;1.05;;;17.70;99.90;;;;;;5024144;28;20314;-70
2023/09/13 03:29:59;;;;;;;1.27;1.17;;;17.60;99.90;;;;;;5027734;28;20112;-70
2023/09/13 03:32:24;;;;;;;2.47;1.60;;;17.70;99.90;;;;;;5024501;28;20410;-70
2023/09/13 03:34:51;;;;;;;0.90;0.90;;;17.70;99.90;;;;;;5029039;28;20025;-70
2023/09/13 03:37:18;;;;;;;2.03;1.73;;;17.70;99.90;;;;;;5033278;28;20025;-70
2023/09/13 03:39:43;;;;;;;1.58;1.27;;;17.80;99.90;;;;;;5029083;28;20424;-70
2023/09/13 03:42:09;;;;;;;0.70;0.70;;;17.80;99.90;;;;;;5033449;28;20033;-70
2023/09/13 03:44:35;;;;;;;1.07;0.90;;;17.80;99.90;;;;;;5032306;28;20451;-70
2023/09/13 03:47:00;;;;;;;3.00;1.43;;;17.70;99.90;;;;;;5040619;28;20037;-70
2023/09/13 03:49:26;;;;;;;0.60;0.47;;;17.70;99.90;;;;;;5035984;28;20028;-70
2023/09/13 03:51:52;;;;;;;4.13;1.90;;;17.70;99.90;;;;;;5030349;28;20320;-70
2023/09/13 03:54:18;;;;;;;1.27;0.93;;;17.70;99.90;;;;;;5035302;28;20048;-77
2023/09/13 03:56:43;;;;;;;1.23;0.73;;;17.70;99.90;;;;;;5031344;28;20084;-70
2023/09/13 03:59:09;;;;;;;1.63;1.03;;;17.70;99.90;;;;;;5033707;28;20385;-70
2023/09/13 04:01:35;;;;;;;1.60;0.90;;;17.80;99.90;;;;;;5032570;28;20025;-70
2023/09/13 04:04:01;;;;;;;2.30;1.57;;;17.80;99.90;;;;;;5031961;28;20116;-70
2023/09/13 04:06:26;;;;;;;2.80;1.40;;;17.80;99.90;;;;;;5033461;28;20029;-70
2023/09/13 04:08:52;;;;;;;2.63;1.63;;;17.80;99.90;;;;;;5037321;28;20029;-70
2023/09/13 04:11:18;;;;;;;2.53;1.17;;;17.80;99.90;;;;;;5041652;28;20044;-70
2023/09/13 04:13:43;;;;;;;2.47;0.90;;;17.80;99.90;;;;;;5034369;28;20034;-70
2023/09/13 04:16:13;;;;;;;0.70;0.50;;;17.80;99.90;;;;;;5027225;28;20084;-70
2023/09/13 04:18:39;;;;;;;3.78;1.55;;;17.90;99.90;;;;;;5028694;28;20025;-70
2023/09/13 04:21:05;;;;;;;0.80;0.80;;;17.90;99.90;;;;;;5022045;28;20040;-70
2023/09/13 04:23:30;;;;;;;1.53;1.30;;;17.90;99.90;;;;;;5030027;28;20037;-70
2023/09/13 04:25:56;;;;;;;1.47;1.07;;;17.80;99.90;;;;;;5017565;28;20050;-70
2023/09/13 04:28:22;;;;;;;3.63;1.73;;;17.80;99.90;;;;;;5027086;28;20029;-70
2023/09/13 04:30:48;;;;;;;1.20;1.00;;;17.80;99.90;;;;;;5029341;28;20037;-70
2023/09/13 04:33:14;;;;;;;4.38;2.45;;;17.80;99.90;;;;;;5030654;28;20479;-70
2023/09/13 04:35:39;;;;;;;2.33;1.60;;;17.80;99.90;;;;;;5034726;28;20029;-70
2023/09/13 04:38:06;;;;;;;2.80;1.90;;;17.90;99.90;;;;;;5028256;28;20370;-76
2023/09/13 04:40:31;;;;;;;0.85;0.68;;;17.90;99.90;;;;;;5035998;28;20025;-70
2023/09/13 04:43:06;;;;;;;4.03;1.23;;;17.90;99.90;;;;;;5027641;28;20080;-69
2023/09/13 04:45:35;;;;;;;3.80;2.17;;;17.90;99.90;;;;;;5033692;28;20060;-78
2023/09/13 04:48:01;;;;;;;2.78;1.38;;;17.90;99.90;;;;;;5028598;28;20072;-70
2023/09/13 04:50:28;;;;;;;2.77;1.67;;;17.90;99.90;;;;;;5032190;28;20424;-69
2023/09/13 04:52:54;;;;;;;1.35;1.25;;;17.90;99.90;;;;;;5027305;28;20416;-70
2023/09/13 04:55:20;;;;;;;4.00;1.60;;;17.90;99.90;;;;;;5027559;28;20049;-70
2023/09/13 04:57:45;;;;;;;0.68;0.68;;;17.90;99.90;;;;;;5031930;28;20328;-70
2023/09/13 05:00:14;;;;;;;4.83;1.20;;;17.90;99.90;;;;;;5031295;28;20032;-70
2023/09/13 05:02:40;;;;;;;0.22;0.22;;;18.00;99.90;;;;;;5031256;28;20088;-73
2023/09/13 05:05:06;;;;;;;0.00;0.00;;;17.80;99.90;;;;;;5033652;28;20033;-71
2023/09/13 05:07:32;;;;;;;0.20;0.20;;;17.20;99.90;;;;;;5034741;28;20356;-70
2023/09/13 05:09:58;;;;;;;0.00;0.00;;;17.00;99.90;;;;;;5026881;28;20036;-69
2023/09/13 05:12:24;;;;;;;0.30;0.30;;;16.60;99.90;;;;;;5033193;28;20021;-69
2023/09/13 05:14:49;;;;;;;6.67;1.90;;;16.60;99.90;;;;;;5034900;28;20380;-70
2023/09/13 05:17:15;;;;;;;0.10;0.10;;;16.50;99.90;;;;;;5034304;28;20337;-71
2023/09/13 05:19:40;;;;;;;0.00;0.00;;;16.60;99.90;;;;;;5032617;28;20375;-72
2023/09/13 05:22:06;;;;;;;0.00;0.00;;;16.60;99.90;;;;;;5036577;28;20046;-70
2023/09/13 05:24:32;;;;;;;0.30;0.30;;;16.60;99.90;;;;;;5030895;28;20037;-70
2023/09/13 05:26:58;;;;;;;0.00;0.00;;;16.60;99.90;;;;;;5034783;28;20111;-70
2023/09/13 05:29:23;;;;;;;1.27;0.20;;;16.60;99.90;;;;;;5027390;28;20033;-72
2023/09/13 05:31:49;;;;;;;0.07;0.07;;;16.50;99.90;;;;;;5030545;28;20171;-72
2023/09/13 05:34:15;;;;;;;0.00;0.00;;;16.50;99.90;;;;;;5030483;28;20429;-81
2023/09/13 05:36:43;;;;;;;0.10;0.10;;;16.40;99.90;;;;;;5034935;28;20037;-73
2023/09/13 05:39:09;;;;;;;0.00;0.00;;;16.40;99.90;;;;;;5032219;28;20022;-71
2023/09/13 05:41:35;;;;;;;0.10;0.10;;;16.40;99.90;;;;;;5032913;28;20028;-71
2023/09/13 05:44:00;;;;;;;0.00;0.00;;;16.30;99.90;;;;;;5031773;28;20029;-71
2023/09/13 05:46:26;;;;;;;0.00;0.00;;;16.30;99.90;;;;;;5027319;28;20022;-80
2023/09/13 05:48:52;;;;;;;0.67;0.67;;;16.30;99.90;;;;;;5029957;28;20451;-71
2023/09/13 05:51:19;;;;;;;0.00;0.00;;;16.20;99.90;;;;;;5045708;28;20387;-78
2023/09/13 05:53:44;;;;;;;1.75;1.55;;;16.10;99.90;;;;;;5039708;28;20029;-70
2023/09/13 05:56:11;;;;;;;0.00;0.00;;;16.20;99.90;;;;;;5030375;28;20062;-71
2023/09/13 05:58:37;;;;;;;0.10;0.10;;;16.20;99.90;;;;;;5030767;28;20026;-70
2023/09/13 06:01:04;;;;;;;0.00;0.00;;;16.20;99.90;;;;;;5043312;28;20507;-70
2023/09/13 06:03:32;;;;;;;0.05;0.05;;;16.10;99.90;;;;;;5042875;28;20025;-72
2023/09/13 06:05:57;;;;;;;0.00;0.00;;;16.20;99.90;;;;;;5032414;28;20109;-69
2023/09/13 06:08:23;;;;;;;0.30;0.30;;;16.10;99.90;;;;;;5040338;28;20109;-71
2023/09/13 06:10:49;;;;;;;0.00;0.00;;;16.10;99.90;;;;;;5034199;28;20104;-71
2023/09/13 06:13:15;;;;;;;0.00;0.00;;;16.00;99.90;;;;;;5035486;28;20059;-71
2023/09/13 06:15:41;;;;;;;0.13;0.13;;;15.90;99.90;;;;;;5037938;28;20033;-78
2023/09/13 06:18:07;;;;;;;0.15;0.15;;;15.90;99.90;;;;;;5036980;28;20294;-70
2023/09/13 06:20:33;;;;;;;0.10;0.10;;;15.90;99.90;;;;;;5035749;28;20037;-87
2023/09/13 06:22:59;;;;;;;0.10;0.10;;;15.90;99.90;;;;;;5044127;28;20488;-71
2023/09/13 06:25:25;;;;;;;0.32;0.32;;;15.90;99.90;;;;;;5036321;28;20033;-81
2023/09/13 06:27:50;;;;;;;0.00;0.00;;;15.80;99.90;;;;;;5041290;28;20040;-72
2023/09/13 06:30:16;;;;;;;0.20;0.20;;;15.80;99.90;;;;;;5037282;28;20108;-70
2023/09/13 06:32:42;;;;;;;0.10;0.10;;;15.80;99.90;;;;;;5038156;28;20036;-71
2023/09/13 06:35:12;;;;;;;0.00;0.00;;;15.80;99.90;;;;;;5041653;28;20044;-70
2023/09/13 06:37:39;;;;;;;3.60;0.30;;;15.80;99.90;;;;;;5042756;28;20313;-89
2023/09/13 06:40:05;;;;;;;0.15;0.15;;;15.80;99.90;;;;;;5037119;28;20029;-71
2023/09/13 06:42:31;;;;;;;0.00;0.00;;;15.80;99.90;;;;;;5029751;28;20045;-70
2023/09/13 06:44:59;;;;;;;0.20;0.20;;;15.90;99.90;;;;;;5037733;28;20029;-69
2023/09/13 06:47:25;;;;;;;0.00;0.00;;;15.90;99.90;;;;;;5036124;28;20293;-69
2023/09/13 06:49:51;;;;;;;0.03;0.03;;;16.00;99.90;;;;;;5031604;28;20029;-70
2023/09/13 06:52:17;;;;;;;0.10;0.10;;;16.00;99.90;;;;;;5033663;28;20044;-69
2023/09/13 06:54:42;;;;;;;0.23;0.23;;;16.00;99.90;;;;;;5032015;28;20025;-83
2023/09/13 06:57:08;;;;;;;0.00;0.00;;;16.00;99.90;;;;;;5031327;28;20419;-69
2023/09/13 06:59:35;;;;;;;0.00;0.00;;;16.00;99.90;;;;;;5036224;28;20036;-69
2023/09/13 07:02:00;;;;;;;0.03;0.03;;;16.00;99.90;;;;;;5035154;28;20045;-69
2023/09/13 07:04:26;;;;;;;0.20;0.20;;;16.00;99.90;;;;;;5035978;28;20326;-70
2023/09/13 07:06:52;;;;;;;0.20;0.20;;;16.20;99.90;;;;;;5033315;28;20021;-70
2023/09/13 07:09:21;;;;;;;0.07;0.07;;;16.30;99.90;;;;;;5042405;28;20021;-69
2023/09/13 07:11:46;;;;;;;3.92;0.40;;;16.40;99.90;;;;;;5038160;28;20036;-69
2023/09/13 07:14:12;;;;;;;0.00;0.00;;;16.40;99.90;;;;;;5038400;28;20033;-69
2023/09/13 07:16:38;;;;;;;0.07;0.07;;;16.50;99.90;;;;;;5024587;28;20042;-69
2023/09/13 07:19:03;;;;;;;0.00;0.00;;;16.50;99.90;;;;;;5035932;28;20021;-68
2023/09/13 07:21:29;;;;;;;0.00;0.00;;;16.50;99.90;;;;;;5037747;28;20116;-86
2023/09/13 07:23:55;;;;;;;0.63;0.40;;;16.60;99.90;;;;;;5042146;28;20316;-69
2023/09/13 07:26:21;;;;;;;1.03;0.93;;;16.70;99.90;;;;;;5033502;28;20129;-69
2023/09/13 07:28:46;;;;;;;0.00;0.00;;;16.80;99.90;;;;;;5034562;28;20094;-69
2023/09/13 07:31:12;;;;;;;0.10;0.10;;;16.90;99.90;;;;;;5027156;28;20376;-69
2023/09/13 07:33:38;;;;;;;0.20;0.20;;;17.00;99.90;;;;;;5031069;28;20463;-70
2023/09/13 07:36:04;;;;;;;1.23;0.63;;;17.00;99.90;;;;;;5034077;28;20021;-69
2023/09/13 07:38:30;;;;;;;0.35;0.22;;;17.00;99.90;;;;;;5037819;28;20049;-78
2023/09/13 07:40:56;;;;;;;0.00;0.00;;;17.00;99.90;;;;;;5037680;28;20085;-69
2023/09/13 07:43:21;;;;;;;0.10;0.10;;;17.00;99.90;;;;;;5036598;28;20281;-68
2023/09/13 07:45:47;;;;;;;1.90;0.77;;;17.10;99.90;;;;;;5032935;28;20025;-68
2023/09/13 07:48:13;;;;;;;0.75;0.75;;;17.10;99.90;;;;;;5032486;28;20033;-83
2023/09/13 07:50:44;;;;;;;1.40;0.30;;;17.10;99.90;;;;;;5039805;28;20042;-68
2023/09/13 07:53:10;;;;;;;0.43;0.30;;;17.10;99.90;;;;;;5035509;28;20029;-68
2023/09/13 07:55:36;;;;;;;;;;;17.00;99.90;;;;;;5039441;28;20052;-70
2023/09/13 07:58:03;;;;;;;0.25;0.25;;;17.00;99.90;;;;;;5030962;28;19913;-69
2023/09/13 08:00:29;;;;;;;0.10;0.10;;;17.00;99.90;;;;;;5037009;28;20344;-68
2023/09/13 08:02:55;;;;;;;0.75;0.45;;;17.00;99.90;;;;;;5033739;28;20050;-68
2023/09/13 08:05:21;;;;;;;0.00;0.00;;;17.00;99.90;;;;;;5033601;28;20036;-69
2023/09/13 08:07:47;;;;;;;0.10;0.10;;;16.90;99.90;;;;;;5029470;28;20029;-68
2023/09/13 08:10:13;;;;;;;0.55;0.52;;;17.00;99.90;;;;;;5035234;28;20086;-68
2023/09/13 08:12:40;;;;;;;0.20;0.20;;;17.00;99.90;;;;;;5043114;28;20037;-68
2023/09/13 08:15:06;;;;;;;0.10;0.10;;;17.00;99.90;;;;;;5035494;28;20373;-68
2023/09/13 08:17:33;;;;;;;6.88;0.47;;;17.00;99.90;;;;;;5037018;28;20435;-68
2023/09/13 08:19:59;;;;;;;0.00;0.00;;;17.00;99.90;;;;;;5032331;28;20029;-68
2023/09/13 08:22:25;;;;;;;0.10;0.10;;;17.10;99.90;;;;;;5043051;28;20029;-85
2023/09/13 08:24:50;;;;;;;0.10;0.10;;;17.20;99.90;;;;;;5034627;28;20039;-68
2023/09/13 08:27:16;;;;;;;0.00;0.00;;;17.10;99.90;;;;;;5038697;28;20056;-68
2023/09/13 08:29:42;;;;;;;0.03;0.03;;;17.30;99.90;;;;;;5031836;28;20045;-68
2023/09/13 08:32:07;;;;;;;2.63;1.20;;;17.30;99.90;;;;;;5035906;28;20416;-83
2023/09/13 08:34:33;;;;;;;0.77;0.43;;;17.40;99.90;;;;;;5035830;28;20029;-68
2023/09/13 08:36:59;;;;;;;0.38;0.38;;;17.30;99.90;;;;;;5037895;28;20047;-68
2023/09/13 08:39:25;;;;;;;0.73;0.20;;;17.30;99.90;;;;;;5036829;28;20116;-85
2023/09/13 08:41:55;;;;;;;0.40;0.40;;;17.40;99.90;;;;;;5032735;28;20026;-68
2023/09/13 08:44:22;;;;;;;0.00;0.00;;;17.50;99.90;;;;;;5031284;28;20022;-69
2023/09/13 08:46:55;;;;;;;;;;;17.60;99.90;;;;;;5033322;28;20029;-68
2023/09/13 08:49:21;;;;;;;0.70;0.70;;;17.80;99.90;;;;;;5033643;28;20387;-69
2023/09/13 08:51:47;;;;;;;0.20;0.10;;;18.10;99.90;;;;;;5032540;28;20052;-69
2023/09/13 08:54:14;;;;;;;0.20;0.20;;;18.20;99.90;;;;;;5030989;28;20291;-68
2023/09/13 08:56:42;;;;;;;2.80;0.40;;;18.30;99.90;;;;;;5034361;28;20042;-69
2023/09/13 08:59:09;;;;;;;0.63;0.57;;;18.60;99.90;;;;;;5032600;28;20086;-68
2023/09/13 09:01:36;;;;;;;0.03;0.03;;;18.70;99.90;;;;;;5029925;28;20030;-68
2023/09/13 09:04:03;;;;;;;0.35;0.35;;;18.80;99.90;;;;;;5035591;28;20026;-69
2023/09/13 09:06:31;;;;;;;0.10;0.10;;;18.80;99.90;;;;;;5023692;28;20026;-81
2023/09/13 09:08:57;;;;;;;0.20;0.20;;;18.70;99.90;;;;;;5035183;28;20053;-87
2023/09/13 09:11:25;;;;;;;0.10;0.10;;;18.40;99.90;;;;;;5026644;28;20321;-68
2023/09/13 09:13:57;;;;;;;0.10;0.10;;;18.40;99.90;;;;;;5032347;28;20061;-68
2023/09/13 09:16:24;;;;;;;0.00;0.00;;;18.20;99.90;;;;;;5027662;28;20030;-70
2023/09/13 09:18:51;;;;;;;0.22;0.20;;;18.20;99.90;;;;;;5031537;28;20033;-68
2023/09/13 09:21:19;;;;;;;0.15;0.15;;;18.00;99.90;;;;;;5030810;28;20021;-88
2023/09/13 09:23:44;;;;;;;1.40;0.98;;;17.90;99.90;;;;;;5031611;28;20324;-69
2023/09/13 09:26:11;;;;;;;0.30;0.30;;;18.10;99.90;;;;;;5032722;28;20053;-68
2023/09/13 09:28:36;;;;;;;0.03;0.03;;;18.30;99.90;;;;;;5034444;28;20033;-85
2023/09/13 09:31:03;;;;;;;0.00;0.00;;;18.40;99.90;;;;;;5036172;28;20033;-69
2023/09/13 09:33:31;;;;;;;0.00;0.00;;;18.40;99.90;;;;;;5033904;28;20038;-68
2023/09/13 09:35:59;;;;;;;0.75;0.47;;;18.50;99.90;;;;;;5034769;28;20084;-86
2023/09/13 09:38:27;;;;;;;0.10;0.10;;;18.60;99.90;;;;;;5038864;28;20033;-68
2023/09/13 09:41:03;;;;;;;0.47;0.35;;;18.70;99.90;;;;;;5034774;28;20324;-69
2023/09/13 09:43:30;;;;;;;0.00;0.00;;;18.70;99.90;;;;;;5036357;28;20036;-69
2023/09/13 09:45:56;;;;;;;0.28;0.28;;;18.70;99.90;;;;;;5032529;28;20030;-69
2023/09/13 09:48:22;;;;;;;0.00;0.00;;;18.80;99.90;;;;;;5027237;28;20108;-68
2023/09/13 09:50:52;;;;;;;0.65;0.43;;;18.90;99.90;;;;;;5037494;28;20472;-68
2023/09/13 09:53:20;;;;;;;1.67;0.47;;;19.00;99.90;;;;;;5035751;28;20033;-68
2023/09/13 09:55:46;;;;;;;0.20;0.20;;;18.80;99.90;;;;;;5025806;28;20041;-69
2023/09/13 09:58:12;;;;;;;0.10;0.10;;;18.60;99.90;;;;;;5035839;28;20034;-68
2023/09/13 10:00:49;;;;;;;0.10;0.10;;;18.40;99.90;;;;;;5036136;28;20118;-89
2023/09/13 10:03:19;;;;;;;0.00;0.00;;;18.40;99.90;;;;;;5034796;28;20025;-86
2023/09/13 10:05:55;;;;;;;0.32;0.32;;;18.50;99.90;;;;;;5024458;28;20034;-84
2023/09/13 10:08:42;;;;;;;3.30;1.23;;;18.50;99.90;;;;;;5030781;28;20030;-69
2023/09/13 10:11:10;;;;;;;0.45;0.35;;;18.20;99.90;;;;;;5034992;28;20025;-85
2023/09/13 10:13:36;;;;;;;1.45;0.60;;;17.50;99.90;;;;;;5029133;28;20040;-70
2023/09/13 10:16:04;;;;;;;0.10;0.10;;;17.00;99.90;;;;;;5032853;28;20025;-69
2023/09/13 10:18:34;;;;;;;0.00;0.00;;;16.80;99.90;;;;;;5032028;28;20317;-70
2023/09/13 10:21:03;;;;;;;0.10;0.10;;;16.50;99.90;;;;;;5034057;28;20026;-89
2023/09/13 10:23:39;;;;;;;0.08;0.08;;;16.20;99.90;;;;;;5034986;28;20034;-70
2023/09/13 10:26:09;;;;;;;0.28;0.28;;;16.10;99.90;;;;;;5029757;28;20046;-88
2023/09/13 10:28:37;;;;;;;3.33;1.00;;;16.10;99.90;;;;;;5035372;28;20108;-69
2023/09/13 10:31:08;;;;;;;0.25;0.25;;;16.10;99.90;;;;;;5029274;28;20417;-68
2023/09/13 10:33:38;;;;;;;0.00;0.00;;;16.10;99.90;;;;;;5046216;28;20084;-69
2023/09/13 10:36:09;;;;;;;0.63;0.55;;;16.30;99.90;;;;;;5031221;28;20029;-69
2023/09/13 10:38:46;;;;;;;1.25;0.75;;;16.40;99.90;;;;;;5028177;28;20376;-70
2023/09/13 10:41:17;;;;;;;0.22;0.22;;;16.40;99.90;;;;;;5033960;28;20022;-72
2023/09/13 10:43:43;;;;;;;0.20;0.20;;;16.60;99.90;;;;;;5037884;28;20040;-69
2023/09/13 10:46:10;;;;;;;;;;;16.80;99.90;;;;;;5037129;28;20017;-70
2023/09/13 10:48:38;;;;;;;0.35;0.35;;;17.00;99.90;;;;;;5032777;28;20310;-69
2023/09/13 10:51:04;;;;;;;0.65;0.43;;;17.10;99.90;;;;;;5035465;28;20037;-69
2023/09/13 10:53:30;;;;;;;;;;;17.30;99.90;;;;;;5033591;28;20124;-70
2023/09/13 10:55:56;;;;;;;0.73;0.73;;;17.50;99.90;;;;;;5038836;28;20000;-70
2023/09/13 10:58:22;;;;;;;0.38;0.38;;;17.60;99.90;;;;;;5032044;28;20034;-70
2023/09/13 11:00:54;;;;;;;2.80;1.27;;;17.60;99.90;;;;;;5035329;28;20040;-69
2023/09/13 11:03:21;;;;;;;0.38;0.38;;;17.70;99.90;;;;;;5034380;28;20122;-69
2023/09/13 11:05:50;;;;;;;0.00;0.00;;;17.70;99.90;;;;;;5027406;28;20329;-69
2023/09/13 11:08:32;;;;;;;0.60;0.60;;;17.80;99.90;;;;;;5033415;28;20030;-82
2023/09/13 11:11:18;;;;;;;0.00;0.00;;;17.90;99.90;;;;;;5037371;28;20037;-69
2023/09/13 11:13:46;;;;;;;0.70;0.65;;;18.20;99.90;;;;;;5034313;28;20072;-68
2023/09/13 11:16:17;;;;;;;0.40;0.40;;;18.30;99.90;;;;;;5032142;28;20022;-69
2023/09/13 11:18:46;;;;;;;0.20;0.20;;;18.20;99.90;;;;;;5037105;28;20033;-69
2023/09/13 11:21:44;;;;;;;0.28;0.20;;;18.10;99.90;;;;;;5031189;28;20030;-69
2023/09/13 11:24:11;;;;;;;0.65;0.20;;;18.00;99.90;;;;;;5032016;28;20033;-69
2023/09/13 11:26:48;;;;;;;0.35;0.35;;;18.20;99.90;;;;;;5035231;28;20045;-69
2023/09/13 11:29:25;;;;;;;0.30;0.30;;;18.30;99.90;;;;;;5031010;28;20069;-88
2023/09/13 11:32:00;;;;;;;0.85;0.25;;;18.60;99.90;;;;;;5028586;28;20036;-69
2023/09/13 11:34:26;;;;;;;0.52;0.10;;;18.60;99.90;;;;;;5029203;28;20032;-69
2023/09/13 11:37:04;;;;;;;0.20;0.20;;;18.60;99.90;;;;;;5040605;28;20075;-69
2023/09/13 11:39:30;;;;;;;0.55;0.55;;;18.60;99.90;;;;;;5031662;28;20029;-69
2023/09/13 11:41:56;;;;;;;0.30;0.30;;;18.80;99.90;;;;;;5034473;28;20042;-70
2023/09/13 11:44:23;;;;;;;0.10;0.10;;;18.80;99.90;;;;;;5024920;28;20111;-69
2023/09/13 11:46:50;;;;;;;;;;;18.70;99.90;;;;;;5033191;28;20311;-70
2023/09/13 11:49:20;;;;;;;0.38;0.20;;;18.70;99.90;;;;;;5039095;28;19920;-69
2023/09/13 11:51:52;;;;;;;0.47;0.30;;;18.60;99.90;;;;;;5031219;28;20033;-69
2023/09/13 11:54:19;;;;;;;0.25;0.25;;;18.60;99.90;;;;;;5035153;28;20029;-69
2023/09/13 11:56:45;;;;;;;0.28;0.15;;;18.70;99.90;;;;;;5038200;28;20479;-69
2023/09/13 11:59:11;;;;;;;0.10;0.10;;;18.70;99.90;;;;;;5029394;28;20041;-69
2023/09/13 12:01:49;;;;;;;0.20;0.20;;;18.70;99.90;;;;;;5032392;28;20037;-70
2023/09/13 12:04:14;;;;;;;0.08;0.08;;;18.70;99.90;;;;;;5033004;28;20029;-69
2023/09/13 12:06:44;;;;;;;0.50;0.20;;;18.80;99.90;;;;;;5049331;28;20019;-69
2023/09/13 12:09:11;;;;;;;1.17;0.13;;;18.70;99.90;;;;;;5039421;28;20473;-69
2023/09/13 12:11:39;;;;;;;0.22;0.22;;;18.70;99.90;;;;;;5033109;28;20036;-69
2023/09/13 12:14:09;;;;;;;3.20;1.55;;;18.80;99.90;;;;;;5025759;28;20293;-78
2023/09/13 12:16:38;;;;;;;0.80;0.80;;;18.90;99.90;;;;;;5028955;28;20045;-69
2023/09/13 12:19:05;;;;;;;2.47;1.50;;;18.90;99.90;;;;;;5029901;28;20036;-70
2023/09/13 12:21:32;;;;;;;0.40;0.30;;;19.10;99.90;;;;;;5041492;28;20122;-69
2023/09/13 12:23:57;;;;;;;0.10;0.10;;;19.00;99.90;;;;;;5034277;28;20104;-79
2023/09/13 12:26:26;;;;;;;0.83;0.63;;;19.10;99.90;;;;;;5030041;28;20128;-69
2023/09/13 12:28:53;;;;;;;0.43;0.43;;;19.20;99.90;;;;;;5037799;28;20065;-70
2023/09/13 12:31:21;;;;;;;0.10;0.10;;;19.20;99.90;;;;;;5037922;28;20379;-70
2023/09/13 12:33:49;;;;;;;1.38;0.52;;;19.30;99.90;;;;;;5033934;28;20117;-68
2023/09/13 12:36:16;;;;;;;0.20;0.20;;;19.20;99.90;;;;;;5026058;28;20059;-69
2023/09/13 12:38:41;;;;;;;0.95;0.47;;;19.10;99.90;;;;;;5036768;28;20032;-69
2023/09/13 12:41:11;;;;;;;0.23;0.23;;;19.10;99.90;;;;;;5034796;28;20018;-70
2023/09/13 12:43:39;;;;;;;1.63;0.75;;;19.10;99.90;;;;;;5035202;28;20031;-81
2023/09/13 12:46:07;;;;;;;0.20;0.20;;;19.10;99.90;;;;;;5025410;28;20068;-80
2023/09/13 12:48:33;;;;;;;0.10;0.10;;;19.10;99.90;;;;;;5030957;28;20036;-69